createdAt,value
2018-09-28T00:00:37.668Z,99.90
2018-09-28T00:03:05.753Z,99.90
2018-09-28T00:05:33.792Z,99.90
2018-09-28T00:08:01.840Z,99.90
2018-09-28T00:10:29.908Z,99.90
2018-09-28T00:12:57.937Z,99.90
2018-09-28T00:15:26.201Z,99.90
2018-09-28T00:17:54.266Z,99.90
2018-09-28T00:20:22.277Z,99.90
2018-09-28T00:22:50.676Z,99.90
2018-09-28T00:25:18.756Z,99.90
2018-09-28T00:27:46.799Z,99.90
2018-09-28T00:30:14.845Z,99.90
2018-09-28T00:32:42.897Z,99.90
2018-09-28T00:35:10.961Z,99.90
2018-09-28T00:37:39.945Z,99.90
2018-09-28T00:40:08.153Z,99.90
2018-09-28T00:42:36.200Z,99.90
2018-09-28T00:45:04.329Z,99.90
2018-09-28T00:47:33.046Z,99.90
2018-09-28T00:50:01.100Z,99.90
2018-09-28T00:52:29.143Z,99.90
2018-09-28T00:54:57.222Z,99.90
2018-09-28T00:57:25.294Z,99.90
2018-09-28T00:59:53.448Z,99.90
2018-09-28T01:02:21.460Z,99.90
2018-09-28T01:04:49.517Z,99.90
2018-09-28T01:07:17.561Z,99.90
2018-09-28T01:09:45.621Z,99.90
2018-09-28T01:12:13.664Z,99.90
2018-09-28T01:14:41.724Z,99.90
2018-09-28T01:17:09.773Z,99.90
2018-09-28T01:19:37.816Z,99.90
2018-09-28T01:22:05.865Z,99.90
2018-09-28T01:24:33.917Z,99.90
2018-09-28T01:27:01.969Z,99.90
2018-09-28T01:29:30.029Z,99.90
2018-09-28T01:31:58.081Z,99.90
2018-09-28T01:34:26.132Z,99.90
2018-09-28T01:36:54.180Z,99.90
2018-09-28T01:39:22.240Z,99.90
2018-09-28T01:41:50.280Z,99.90
2018-09-28T01:44:18.360Z,99.90
2018-09-28T01:46:53.209Z,99.90
2018-09-28T01:49:21.288Z,99.90
2018-09-28T01:51:49.328Z,99.90
2018-09-28T01:54:17.381Z,99.90
2018-09-28T01:56:45.500Z,99.90
2018-09-28T01:59:13.561Z,99.90
2018-09-28T02:01:41.624Z,99.90
2018-09-28T02:04:09.678Z,99.90
2018-09-28T02:06:37.733Z,99.90
2018-09-28T02:09:06.905Z,99.90
2018-09-28T02:11:34.971Z,99.90
2018-09-28T02:14:03.013Z,99.90
2018-09-28T02:16:31.143Z,99.90
2018-09-28T02:18:59.176Z,99.90
2018-09-28T02:21:27.261Z,99.90
2018-09-28T02:23:55.312Z,99.90
2018-09-28T02:26:23.364Z,99.90
2018-09-28T02:28:51.426Z,99.90
2018-09-28T02:31:19.494Z,99.90
2018-09-28T02:33:47.549Z,99.90
2018-09-28T02:36:15.609Z,99.90
2018-09-28T02:38:43.685Z,99.90
2018-09-28T02:41:11.732Z,99.90
2018-09-28T02:43:39.784Z,99.90
2018-09-28T02:46:07.825Z,99.90
2018-09-28T02:48:35.894Z,99.90
2018-09-28T02:51:04.020Z,99.90
2018-09-28T02:53:32.053Z,99.90
2018-09-28T02:56:00.101Z,99.90
2018-09-28T02:58:28.152Z,99.90
2018-09-28T03:00:56.204Z,99.90
2018-09-28T03:03:24.255Z,99.90
2018-09-28T03:05:52.306Z,99.90
2018-09-28T03:08:20.361Z,99.90
2018-09-28T03:10:48.421Z,99.90
2018-09-28T03:13:16.476Z,99.90
2018-09-28T03:15:44.563Z,99.90
2018-09-28T03:18:12.601Z,99.90
2018-09-28T03:20:40.654Z,99.90
2018-09-28T03:23:08.701Z,99.90
2018-09-28T03:25:36.757Z,99.90
2018-09-28T03:28:04.809Z,99.90
2018-09-28T03:30:32.861Z,99.90
2018-09-28T03:33:00.912Z,99.90
2018-09-28T03:35:28.982Z,99.90
2018-09-28T03:37:57.120Z,99.90
2018-09-28T03:40:25.166Z,99.90
2018-09-28T03:42:53.195Z,99.90
2018-09-28T03:45:21.253Z,99.90
2018-09-28T03:47:49.777Z,99.90
2018-09-28T03:50:17.973Z,99.90
2018-09-28T03:52:46.023Z,99.90
2018-09-28T03:55:14.453Z,99.90
2018-09-28T03:57:42.619Z,99.90
2018-09-28T04:00:11.236Z,99.90
2018-09-28T04:02:40.125Z,99.90
2018-09-28T04:05:08.177Z,99.90
2018-09-28T04:07:36.693Z,99.90
2018-09-28T04:10:05.656Z,99.90
2018-09-28T04:12:33.705Z,99.90
2018-09-28T04:15:01.958Z,99.90
2018-09-28T04:17:29.809Z,99.90
2018-09-28T04:19:57.865Z,99.90
2018-09-28T04:22:25.933Z,99.90
2018-09-28T04:24:53.985Z,99.90
2018-09-28T04:27:22.034Z,99.90
2018-09-28T04:29:50.177Z,99.90
2018-09-28T04:32:18.196Z,99.90
2018-09-28T04:34:46.347Z,99.90
2018-09-28T04:37:14.368Z,99.90
2018-09-28T04:39:42.422Z,99.90
2018-09-28T04:42:17.020Z,99.90
2018-09-28T04:44:45.090Z,99.90
2018-09-28T04:47:13.226Z,99.90
2018-09-28T04:49:41.420Z,99.90
2018-09-28T04:52:09.474Z,99.90
2018-09-28T04:54:37.522Z,99.90
2018-09-28T04:57:05.584Z,99.90
2018-09-28T04:59:33.748Z,99.90
2018-09-28T05:02:01.773Z,99.90
2018-09-28T05:04:29.834Z,99.90
2018-09-28T05:06:57.877Z,99.90
2018-09-28T05:09:32.590Z,99.90
2018-09-28T05:12:00.633Z,99.90
2018-09-28T05:14:28.721Z,99.90
2018-09-28T05:16:56.793Z,99.90
2018-09-28T05:19:24.856Z,99.90
2018-09-28T05:21:52.876Z,99.90
2018-09-28T05:24:20.924Z,99.90
2018-09-28T05:26:48.968Z,99.90
2018-09-28T05:29:17.053Z,99.90
2018-09-28T05:31:45.539Z,99.90
2018-09-28T05:34:13.467Z,99.90
2018-09-28T05:36:41.676Z,99.90
2018-09-28T05:39:10.087Z,99.90
2018-09-28T05:41:38.139Z,99.90
2018-09-28T05:44:06.353Z,99.90
2018-09-28T05:46:34.428Z,99.90
2018-09-28T05:49:02.492Z,99.90
2018-09-28T05:51:30.572Z,99.90
2018-09-28T05:53:58.592Z,99.90
2018-09-28T05:56:26.644Z,99.90
2018-09-28T05:59:00.306Z,99.90
2018-09-28T06:01:33.948Z,99.90
2018-09-28T06:04:07.313Z,99.90
2018-09-28T06:06:35.352Z,99.90
2018-09-28T06:09:03.580Z,99.90
2018-09-28T06:11:31.621Z,99.90
2018-09-28T06:13:59.657Z,99.90
2018-09-28T06:16:27.825Z,99.90
2018-09-28T06:18:55.878Z,99.90
2018-09-28T06:21:23.926Z,99.90
2018-09-28T06:23:51.960Z,99.90
2018-09-28T06:26:20.027Z,99.90
2018-09-28T06:28:48.069Z,99.90
2018-09-28T06:31:16.126Z,99.90
2018-09-28T06:33:44.174Z,99.90
2018-09-28T06:36:12.295Z,99.90
2018-09-28T06:38:40.296Z,99.90
2018-09-28T06:41:08.348Z,99.90
2018-09-28T06:43:36.392Z,99.90
2018-09-28T06:46:04.451Z,99.90
2018-09-28T06:48:32.493Z,99.90
2018-09-28T06:51:00.549Z,99.90
2018-09-28T06:53:28.604Z,99.90
2018-09-28T06:55:56.665Z,99.90
2018-09-28T06:58:24.717Z,99.90
2018-09-28T07:00:52.769Z,99.90
2018-09-28T07:03:20.828Z,99.90
2018-09-28T07:05:48.942Z,99.90
2018-09-28T07:08:16.935Z,99.90
2018-09-28T07:10:45.004Z,99.90
2018-09-28T07:13:13.057Z,99.90
2018-09-28T07:15:41.114Z,99.90
2018-09-28T07:18:09.233Z,99.90
2018-09-28T07:20:37.238Z,99.90
2018-09-28T07:23:05.505Z,99.90
2018-09-28T07:25:33.564Z,99.90
2018-09-28T07:28:01.615Z,99.90
2018-09-28T07:30:29.877Z,99.90
2018-09-28T07:32:57.934Z,99.10
2018-09-28T07:35:26.027Z,96.00
2018-09-28T07:37:54.056Z,93.80
2018-09-28T07:40:22.174Z,92.00
2018-09-28T07:42:50.234Z,89.00
2018-09-28T07:45:18.301Z,84.50
2018-09-28T07:47:46.428Z,79.70
2018-09-28T07:50:14.536Z,71.70
2018-09-28T07:52:42.734Z,67.50
2018-09-28T07:55:11.333Z,63.80
2018-09-28T07:57:39.476Z,61.50
2018-09-28T08:00:07.564Z,58.80
2018-09-28T08:02:35.643Z,56.20
2018-09-28T08:05:03.704Z,53.50
2018-09-28T08:07:31.771Z,51.00
2018-09-28T08:09:59.832Z,49.00
2018-09-28T08:12:27.893Z,46.50
2018-09-28T08:14:55.976Z,44.60
2018-09-28T08:17:24.052Z,42.10
2018-09-28T08:19:52.131Z,41.70
2018-09-28T08:22:20.200Z,41.20
2018-09-28T08:24:48.358Z,40.50
2018-09-28T08:27:16.328Z,40.00
2018-09-28T08:29:44.395Z,39.40
2018-09-28T08:32:12.462Z,40.10
2018-09-28T08:34:40.531Z,39.70
2018-09-28T08:37:08.609Z,37.40
2018-09-28T08:39:36.669Z,36.80
2018-09-28T08:42:04.722Z,34.10
2018-09-28T08:44:32.920Z,33.80
2018-09-28T08:47:01.009Z,33.50
2018-09-28T08:49:29.113Z,33.80
2018-09-28T08:51:57.603Z,32.60
2018-09-28T08:54:25.680Z,32.60
2018-09-28T08:56:53.799Z,30.70
2018-09-28T08:59:21.889Z,29.90
2018-09-28T09:01:49.950Z,29.50
2018-09-28T09:04:18.063Z,30.60
2018-09-28T09:06:46.318Z,30.30
2018-09-28T09:09:14.382Z,29.90
2018-09-28T09:11:42.525Z,29.60
2018-09-28T09:14:10.618Z,29.90
2018-09-28T09:16:38.724Z,30.20
2018-09-28T09:19:06.928Z,30.00
2018-09-28T09:21:35.016Z,29.60
2018-09-28T09:24:03.136Z,29.30
2018-09-28T09:26:31.191Z,28.60
2018-09-28T09:28:59.239Z,27.20
2018-09-28T09:31:27.297Z,26.90
2018-09-28T09:33:55.441Z,27.00
2018-09-28T09:36:23.548Z,27.60
2018-09-28T09:38:51.613Z,27.80
2018-09-28T09:41:19.700Z,28.20
2018-09-28T09:43:47.756Z,28.40
2018-09-28T09:46:15.993Z,28.00
2018-09-28T09:48:44.098Z,29.00
2018-09-28T09:51:12.231Z,27.60
2018-09-28T09:53:40.477Z,28.60
2018-09-28T09:56:08.551Z,27.80
2018-09-28T09:58:36.657Z,28.50
2018-09-28T10:01:04.809Z,28.50
2018-09-28T10:03:38.826Z,27.00
2018-09-28T10:06:07.773Z,27.20
2018-09-28T10:08:35.855Z,27.20
2018-09-28T10:11:03.988Z,27.50
2018-09-28T10:13:32.205Z,26.50
2018-09-28T10:16:00.309Z,26.50
2018-09-28T10:18:28.423Z,26.90
2018-09-28T10:20:56.492Z,25.70
2018-09-28T10:23:24.632Z,26.10
2018-09-28T10:25:52.730Z,25.60
2018-09-28T10:28:21.047Z,25.50
2018-09-28T10:30:49.620Z,27.60
2018-09-28T10:33:17.660Z,28.20
2018-09-28T10:35:45.960Z,26.60
2018-09-28T10:38:14.008Z,24.90
2018-09-28T10:40:42.311Z,24.80
2018-09-28T10:43:10.503Z,26.70
2018-09-28T10:45:38.637Z,26.90
2018-09-28T10:48:06.704Z,25.00
2018-09-28T10:50:34.815Z,25.40
2018-09-28T10:53:02.919Z,26.90
2018-09-28T10:55:31.049Z,25.50
2018-09-28T10:57:59.349Z,26.60
2018-09-28T11:00:27.415Z,25.80
2018-09-28T11:02:55.702Z,25.40
2018-09-28T11:05:23.797Z,24.90
2018-09-28T11:07:51.964Z,24.90
2018-09-28T11:10:20.122Z,24.40
2018-09-28T11:12:48.170Z,23.80
2018-09-28T11:15:16.308Z,23.90
2018-09-28T11:17:44.413Z,23.80
2018-09-28T11:20:12.515Z,23.40
2018-09-28T11:22:40.625Z,22.60
2018-09-28T11:25:08.686Z,23.00
2018-09-28T11:27:36.777Z,23.70
2018-09-28T11:30:04.914Z,23.20
2018-09-28T11:32:33.024Z,23.60
2018-09-28T11:35:01.125Z,22.50
2018-09-28T11:37:29.250Z,22.90
2018-09-28T11:39:57.374Z,23.90
2018-09-28T11:42:25.464Z,24.10
2018-09-28T11:44:53.553Z,24.00
2018-09-28T11:47:21.624Z,23.90
2018-09-28T11:49:49.747Z,23.50
2018-09-28T11:52:17.926Z,24.40
2018-09-28T11:54:46.340Z,23.70
2018-09-28T11:57:14.437Z,24.30
2018-09-28T11:59:42.526Z,23.60
2018-09-28T12:02:10.652Z,23.40
2018-09-28T12:04:38.740Z,23.70
2018-09-28T12:07:07.498Z,24.20
2018-09-28T12:09:35.579Z,23.80
2018-09-28T12:12:03.707Z,24.40
2018-09-28T12:14:31.780Z,24.60
2018-09-28T12:16:59.840Z,23.90
2018-09-28T12:19:27.897Z,24.80
2018-09-28T12:21:56.050Z,25.20
2018-09-28T12:24:24.167Z,26.20
2018-09-28T12:26:52.173Z,27.10
2018-09-28T12:29:20.228Z,27.60
2018-09-28T12:31:48.317Z,29.30
2018-09-28T12:34:16.366Z,29.40
2018-09-28T12:36:44.451Z,30.10
2018-09-28T12:39:12.980Z,29.90
2018-09-28T12:41:41.603Z,31.40
2018-09-28T12:44:09.709Z,31.80
2018-09-28T12:46:37.764Z,34.70
2018-09-28T12:49:06.023Z,35.80
2018-09-28T12:51:34.080Z,36.80
2018-09-28T12:54:02.140Z,37.90
2018-09-28T12:56:30.402Z,39.60
2018-09-28T12:58:58.496Z,40.20
2018-09-28T13:01:26.597Z,41.80
2018-09-28T13:03:55.185Z,42.60
2018-09-28T13:06:23.381Z,44.10
2018-09-28T13:08:51.433Z,44.60
2018-09-28T13:11:19.457Z,45.20
2018-09-28T13:13:47.518Z,46.10
2018-09-28T13:16:15.596Z,46.50
2018-09-28T13:18:43.813Z,46.70
2018-09-28T13:21:11.822Z,46.60
2018-09-28T13:23:39.901Z,46.90
2018-09-28T13:26:07.968Z,46.90
2018-09-28T13:28:36.020Z,48.10
2018-09-28T13:31:04.076Z,47.80
2018-09-28T13:33:32.159Z,48.10
2018-09-28T13:36:00.333Z,48.90
2018-09-28T13:38:28.585Z,49.10
2018-09-28T13:40:56.633Z,50.50
2018-09-28T13:43:24.735Z,51.60
2018-09-28T13:45:52.823Z,52.30
2018-09-28T13:48:20.871Z,53.40
2018-09-28T13:50:48.936Z,54.10
2018-09-28T13:53:16.954Z,55.30
2018-09-28T13:55:44.997Z,56.70
2018-09-28T13:58:13.072Z,57.90
2018-09-28T14:00:41.139Z,58.90
2018-09-28T14:03:09.169Z,60.00
2018-09-28T14:05:37.211Z,59.20
2018-09-28T14:08:05.302Z,59.80
2018-09-28T14:10:33.354Z,61.60
2018-09-28T14:13:01.373Z,63.40
2018-09-28T14:15:29.482Z,64.10
2018-09-28T14:17:57.517Z,66.10
2018-09-28T14:20:25.624Z,66.70
2018-09-28T14:22:53.634Z,67.50
2018-09-28T14:25:21.681Z,69.70
2018-09-28T14:27:49.791Z,70.70
2018-09-28T14:30:17.863Z,72.10
2018-09-28T14:32:45.984Z,74.40
2018-09-28T14:35:13.967Z,75.50
2018-09-28T14:37:42.042Z,78.40
2018-09-28T14:40:10.351Z,78.20
2018-09-28T14:42:38.751Z,80.00
2018-09-28T14:45:07.069Z,81.70
2018-09-28T14:47:35.299Z,82.70
2018-09-28T14:50:03.299Z,84.00
2018-09-28T14:52:31.374Z,86.80
2018-09-28T14:54:59.510Z,89.90
2018-09-28T14:57:27.541Z,89.90
2018-09-28T14:59:55.623Z,90.70
2018-09-28T15:02:23.744Z,91.70
2018-09-28T15:04:51.753Z,92.20
2018-09-28T15:07:19.878Z,92.80
2018-09-28T15:09:47.908Z,93.60
2018-09-28T15:12:16.071Z,95.40
2018-09-28T15:14:44.270Z,95.30
2018-09-28T15:17:12.429Z,96.10
2018-09-28T15:19:40.609Z,95.90
2018-09-28T15:22:08.632Z,95.80
2018-09-28T15:24:36.713Z,96.20
2018-09-28T15:27:04.781Z,96.50
2018-09-28T15:29:32.944Z,96.90
2018-09-28T15:32:00.946Z,96.30
2018-09-28T15:34:29.000Z,96.80
2018-09-28T15:36:57.053Z,96.80
2018-09-28T15:39:25.104Z,97.00
2018-09-28T15:41:53.268Z,96.40
2018-09-28T15:44:21.337Z,96.90
2018-09-28T15:46:49.438Z,96.80
2018-09-28T15:49:17.507Z,96.60
2018-09-28T15:51:45.614Z,97.40
2018-09-28T15:54:13.674Z,98.00
2018-09-28T15:56:41.784Z,97.70
2018-09-28T15:59:09.832Z,97.80
2018-09-28T16:01:37.893Z,97.60
2018-09-28T16:04:06.157Z,97.80
2018-09-28T16:06:34.229Z,98.00
2018-09-28T16:09:02.302Z,97.90
2018-09-28T16:11:30.356Z,98.30
2018-09-28T16:13:58.472Z,98.70
2018-09-28T16:16:26.506Z,98.10
2018-09-28T16:18:54.597Z,98.40
2018-09-28T16:21:22.727Z,98.60
2018-09-28T16:23:50.771Z,98.10
2018-09-28T16:26:18.817Z,98.10
2018-09-28T16:28:46.888Z,98.00
2018-09-28T16:31:14.929Z,98.10
2018-09-28T16:33:42.988Z,98.50
2018-09-28T16:36:11.123Z,97.40
2018-09-28T16:38:39.109Z,98.30
2018-09-28T16:41:07.260Z,98.00
2018-09-28T16:43:35.505Z,97.70
2018-09-28T16:46:03.578Z,97.90
2018-09-28T16:48:31.762Z,97.40
2018-09-28T16:50:59.792Z,97.40
2018-09-28T16:53:27.857Z,97.30
2018-09-28T16:55:55.912Z,97.50
2018-09-28T16:58:23.977Z,97.30
2018-09-28T17:00:52.036Z,97.10
2018-09-28T17:03:20.135Z,96.20
2018-09-28T17:05:48.164Z,96.30
2018-09-28T17:08:16.269Z,95.70
2018-09-28T17:10:44.329Z,95.60
2018-09-28T17:13:12.422Z,95.40
2018-09-28T17:15:40.485Z,95.50
2018-09-28T17:18:08.677Z,95.20
2018-09-28T17:20:36.760Z,95.00
2018-09-28T17:23:04.789Z,94.80
2018-09-28T17:25:32.844Z,95.00
2018-09-28T17:28:00.915Z,95.00
2018-09-28T17:30:28.958Z,95.00
2018-09-28T17:32:57.018Z,94.50
2018-09-28T17:35:25.121Z,94.20
2018-09-28T17:37:53.174Z,95.00
2018-09-28T17:40:21.302Z,94.00
2018-09-28T17:42:49.353Z,94.00
2018-09-28T17:45:17.461Z,94.10
2018-09-28T17:47:45.526Z,94.10
2018-09-28T17:50:13.678Z,94.10
2018-09-28T17:52:41.704Z,94.00
2018-09-28T17:55:09.783Z,94.60
2018-09-28T17:57:37.837Z,94.10
2018-09-28T18:00:05.917Z,93.50
2018-09-28T18:02:33.995Z,93.20
2018-09-28T18:05:02.025Z,94.10
2018-09-28T18:07:30.077Z,92.70
2018-09-28T18:09:58.132Z,93.30
2018-09-28T18:12:26.260Z,92.70
2018-09-28T18:14:54.312Z,92.60
2018-09-28T18:17:22.404Z,92.50
2018-09-28T18:19:50.464Z,92.00
2018-09-28T18:22:18.524Z,92.10
2018-09-28T18:24:46.573Z,92.10
2018-09-28T18:27:14.710Z,92.10
2018-09-28T18:29:42.704Z,92.70
2018-09-28T18:32:10.764Z,92.80
2018-09-28T18:34:38.850Z,92.40
2018-09-28T18:37:07.035Z,92.40
2018-09-28T18:39:35.092Z,92.30
2018-09-28T18:42:03.193Z,92.40
2018-09-28T18:44:31.334Z,92.30
2018-09-28T18:46:59.372Z,92.40
2018-09-28T18:49:27.503Z,92.60
2018-09-28T18:51:55.532Z,92.60
2018-09-28T18:54:23.585Z,92.40
2018-09-28T18:56:51.657Z,92.70
2018-09-28T18:59:19.692Z,92.60
2018-09-28T19:01:47.809Z,92.80
2018-09-28T19:04:15.871Z,92.80
2018-09-28T19:06:43.996Z,92.60
2018-09-28T19:09:12.705Z,92.90
2018-09-28T19:11:41.551Z,92.90
2018-09-28T19:14:09.564Z,93.20
2018-09-28T19:16:37.615Z,93.80
2018-09-28T19:19:05.749Z,94.00
2018-09-28T19:21:33.805Z,93.80
2018-09-28T19:24:01.848Z,94.10
2018-09-28T19:26:29.909Z,94.00
2018-09-28T19:28:58.043Z,93.70
2018-09-28T19:31:26.109Z,93.90
2018-09-28T19:33:54.254Z,94.00
2018-09-28T19:36:22.326Z,94.20
2018-09-28T19:38:50.372Z,94.20
2018-09-28T19:41:18.512Z,94.40
2018-09-28T19:43:46.597Z,94.40
2018-09-28T19:46:14.649Z,94.50
2018-09-28T19:48:42.693Z,94.40
2018-09-28T19:51:10.789Z,94.40
2018-09-28T19:53:38.852Z,94.40
2018-09-28T19:56:06.921Z,94.80
2018-09-28T19:58:35.002Z,95.00
2018-09-28T20:01:03.190Z,94.90
2018-09-28T20:03:31.230Z,95.20
2018-09-28T20:05:59.325Z,95.60
2018-09-28T20:08:27.370Z,95.70
2018-09-28T20:10:55.409Z,95.80
2018-09-28T20:13:23.478Z,96.20
2018-09-28T20:15:51.513Z,96.30
2018-09-28T20:18:19.648Z,96.40
2018-09-28T20:20:47.744Z,96.50
2018-09-28T20:23:15.837Z,96.80
2018-09-28T20:25:43.880Z,97.00
2018-09-28T20:28:12.021Z,97.20
2018-09-28T20:30:40.107Z,97.60
2018-09-28T20:33:08.409Z,97.60
2018-09-28T20:35:36.470Z,97.60
2018-09-28T20:38:04.632Z,98.00
2018-09-28T20:40:32.759Z,98.10
2018-09-28T20:43:00.803Z,98.00
2018-09-28T20:45:29.144Z,98.30
2018-09-28T20:47:57.211Z,98.40
2018-09-28T20:50:25.364Z,98.40
2018-09-28T20:52:53.415Z,99.20
2018-09-28T20:55:21.554Z,99.60
2018-09-28T20:57:49.557Z,99.90
2018-09-28T21:00:17.659Z,99.90
2018-09-28T21:02:45.720Z,99.90
2018-09-28T21:05:13.777Z,99.90
2018-09-28T21:07:41.834Z,99.90
2018-09-28T21:10:09.876Z,99.90
2018-09-28T21:12:38.050Z,99.90
2018-09-28T21:15:06.106Z,99.90
2018-09-28T21:17:34.225Z,99.90
2018-09-28T21:20:02.261Z,99.90
2018-09-28T21:22:30.338Z,99.90
2018-09-28T21:24:58.482Z,99.90
2018-09-28T21:27:26.569Z,99.90
2018-09-28T21:29:54.630Z,99.90
2018-09-28T21:32:22.735Z,99.90
2018-09-28T21:34:50.756Z,99.90
2018-09-28T21:37:18.818Z,99.90
2018-09-28T21:39:46.875Z,99.90
2018-09-28T21:42:14.941Z,99.90
2018-09-28T21:44:43.024Z,99.90
2018-09-28T21:47:11.094Z,99.90
2018-09-28T21:49:39.153Z,99.90
2018-09-28T21:52:08.049Z,99.90
2018-09-28T21:54:36.294Z,99.90
2018-09-28T21:57:04.335Z,99.90
2018-09-28T21:59:32.391Z,99.90
2018-09-28T22:02:00.446Z,99.90
2018-09-28T22:04:28.500Z,99.90
2018-09-28T22:06:56.553Z,99.90
2018-09-28T22:09:24.608Z,99.90
2018-09-28T22:11:52.672Z,99.90
2018-09-28T22:14:20.792Z,99.90
2018-09-28T22:16:48.990Z,99.90
2018-09-28T22:19:17.055Z,99.90
2018-09-28T22:21:45.110Z,99.90
2018-09-28T22:24:13.180Z,99.90
2018-09-28T22:26:41.319Z,99.90
2018-09-28T22:29:09.384Z,99.90
2018-09-28T22:31:37.446Z,99.90
2018-09-28T22:34:05.523Z,99.90
2018-09-28T22:36:33.576Z,99.90
2018-09-28T22:39:01.743Z,99.90
2018-09-28T22:41:29.825Z,99.90
2018-09-28T22:43:57.857Z,99.90
2018-09-28T22:46:25.912Z,99.90
2018-09-28T22:48:53.973Z,99.90
2018-09-28T22:51:22.026Z,99.90
2018-09-28T22:53:50.077Z,99.90
2018-09-28T22:56:18.160Z,99.90
2018-09-28T22:58:46.319Z,99.90
2018-09-28T23:01:14.360Z,99.90
2018-09-28T23:03:42.434Z,99.90
2018-09-28T23:06:10.517Z,99.90
2018-09-28T23:08:38.573Z,99.90
2018-09-28T23:11:06.661Z,99.90
2018-09-28T23:13:34.709Z,99.90
2018-09-28T23:16:02.776Z,99.90
2018-09-28T23:18:30.895Z,99.90
2018-09-28T23:20:58.955Z,99.90
2018-09-28T23:23:27.036Z,99.90
2018-09-28T23:25:55.094Z,99.90
2018-09-28T23:28:23.141Z,99.90
2018-09-28T23:30:51.289Z,99.90
2018-09-28T23:33:19.333Z,99.90
2018-09-28T23:35:47.406Z,99.90
2018-09-28T23:38:15.466Z,99.90
2018-09-28T23:40:43.532Z,99.90
2018-09-28T23:43:11.589Z,99.90
2018-09-28T23:45:39.645Z,99.90
2018-09-28T23:48:07.720Z,99.90
2018-09-28T23:50:35.788Z,99.90
2018-09-28T23:53:03.874Z,99.90
2018-09-28T23:55:31.904Z,99.90
2018-09-28T23:57:59.953Z,99.90
